createdAt,value
2022-11-26T00:02:21.865Z,72.00
2022-11-26T00:04:50.680Z,79.00
2022-11-26T00:07:22.680Z,82.25
2022-11-26T00:09:51.557Z,79.50
2022-11-26T00:12:22.732Z,81.25
2022-11-26T00:14:51.207Z,84.67
2022-11-26T00:17:22.032Z,91.50
2022-11-26T00:19:50.529Z,81.33
2022-11-26T00:22:25.549Z,80.75
2022-11-26T00:24:54.815Z,72.75
2022-11-26T00:27:26.955Z,72.25
2022-11-26T00:29:56.293Z,73.25
2022-11-26T00:32:27.714Z,90.67
2022-11-26T00:34:56.030Z,91.67
2022-11-26T00:37:28.392Z,80.50
2022-11-26T00:39:58.038Z,92.50
2022-11-26T00:42:27.009Z,98.25
2022-11-26T00:44:55.397Z,93.25
2022-11-26T00:47:24.177Z,99.25
2022-11-26T00:49:53.874Z,94.75
2022-11-26T00:52:34.706Z,94.75
2022-11-26T00:55:08.328Z,89.67
2022-11-26T00:57:37.479Z,85.00
2022-11-26T01:00:15.880Z,83.50
2022-11-26T01:02:44.811Z,77.25
2022-11-26T01:05:14.899Z,79.75
2022-11-26T01:07:45.745Z,77.00
2022-11-26T01:10:20.867Z,72.25
2022-11-26T01:12:50.663Z,59.75
2022-11-26T01:15:19.893Z,56.50
2022-11-26T01:17:49.199Z,62.00
2022-11-26T01:20:25.524Z,69.25
2022-11-26T01:22:56.804Z,36.50
2022-11-26T01:25:26.993Z,73.50
2022-11-26T01:27:56.170Z,72.00
2022-11-26T01:30:27.172Z,79.50
2022-11-26T01:32:56.060Z,80.25
2022-11-26T01:35:25.853Z,78.25
2022-11-26T01:37:55.461Z,76.75
2022-11-26T01:40:53.253Z,76.25
2022-11-26T01:43:26.815Z,84.00
2022-11-26T01:45:56.589Z,84.00
2022-11-26T01:48:29.181Z,86.33
2022-11-26T01:51:06.996Z,62.33
2022-11-26T01:53:48.766Z,83.50
2022-11-26T01:56:37.460Z,83.00
2022-11-26T01:59:10.297Z,82.33
2022-11-26T02:01:39.181Z,72.75
2022-11-26T02:04:13.976Z,81.67
2022-11-26T02:06:46.187Z,88.33
2022-11-26T02:09:16.120Z,84.00
2022-11-26T02:11:45.187Z,90.33
2022-11-26T02:14:17.709Z,82.67
2022-11-26T02:17:09.575Z,89.67
2022-11-26T02:20:17.230Z,86.75
2022-11-26T02:23:20.570Z,80.75
2022-11-26T02:26:30.913Z,81.50
2022-11-26T02:29:07.861Z,84.00
2022-11-26T02:31:46.772Z,73.33
2022-11-26T02:34:22.572Z,73.75
2022-11-26T02:36:54.907Z,79.50
2022-11-26T02:39:26.315Z,78.25
2022-11-26T02:41:57.028Z,79.67
2022-11-26T02:44:29.755Z,80.25
2022-11-26T02:47:04.063Z,80.50
2022-11-26T02:49:34.545Z,71.25
2022-11-26T02:52:06.094Z,79.75
2022-11-26T02:54:37.444Z,78.25
2022-11-26T02:57:10.326Z,80.50
2022-11-26T02:59:40.262Z,79.25
2022-11-26T03:02:16.059Z,82.50
2022-11-26T03:04:48.428Z,76.00
2022-11-26T03:07:18.404Z,73.25
2022-11-26T03:09:52.697Z,74.75
2022-11-26T03:12:21.982Z,72.25
2022-11-26T03:14:50.586Z,71.00
2022-11-26T03:17:21.191Z,74.00
2022-11-26T03:19:49.754Z,78.00
2022-11-26T03:22:18.963Z,75.50
2022-11-26T03:24:47.336Z,77.75
2022-11-26T03:27:16.066Z,78.25
2022-11-26T03:29:44.417Z,80.00
2022-11-26T03:32:13.182Z,73.25
2022-11-26T03:34:43.418Z,80.50
2022-11-26T03:37:12.122Z,78.25
2022-11-26T03:39:40.605Z,82.25
2022-11-26T03:42:09.395Z,71.50
2022-11-26T03:44:38.245Z,73.75
2022-11-26T03:47:07.240Z,68.50
2022-11-26T03:49:35.853Z,77.00
2022-11-26T03:52:06.203Z,76.75
2022-11-26T03:54:34.603Z,81.00
2022-11-26T03:57:03.314Z,81.00
2022-11-26T03:59:31.850Z,82.67
2022-11-26T04:02:00.500Z,81.25
2022-11-26T04:04:28.894Z,98.75
2022-11-26T04:06:57.684Z,91.00
2022-11-26T04:09:27.522Z,93.75
2022-11-26T04:11:56.266Z,94.50
2022-11-26T04:14:24.684Z,83.75
2022-11-26T04:16:53.576Z,87.67
2022-11-26T04:19:22.015Z,90.00
2022-11-26T04:21:50.651Z,88.33
2022-11-26T04:24:18.939Z,82.00
2022-11-26T04:26:49.059Z,76.75
2022-11-26T04:29:17.418Z,79.00
2022-11-26T04:31:46.263Z,75.75
2022-11-26T04:34:14.762Z,72.50
2022-11-26T04:36:43.481Z,70.25
2022-11-26T04:39:12.636Z,66.75
2022-11-26T04:41:42.912Z,71.75
2022-11-26T04:44:12.645Z,90.67
2022-11-26T04:46:41.388Z,80.67
2022-11-26T04:49:09.857Z,68.50
2022-11-26T04:51:38.467Z,77.33
2022-11-26T04:54:12.733Z,73.50
2022-11-26T04:56:41.978Z,74.00
2022-11-26T04:59:10.383Z,78.50
2022-11-26T05:01:40.918Z,82.50
2022-11-26T05:04:09.406Z,104.50
2022-11-26T05:06:38.160Z,73.25
2022-11-26T05:09:07.032Z,78.25
2022-11-26T05:11:35.751Z,82.75
2022-11-26T05:14:04.162Z,90.67
2022-11-26T05:16:33.075Z,66.33
2022-11-26T05:19:02.964Z,83.00
2022-11-26T05:21:31.659Z,112.75
2022-11-26T05:24:00.000Z,90.00
2022-11-26T05:26:28.789Z,81.67
2022-11-26T05:28:57.262Z,82.00
2022-11-26T05:31:26.294Z,88.00
2022-11-26T05:33:54.697Z,84.00
2022-11-26T05:36:24.997Z,87.00
2022-11-26T05:38:53.435Z,85.25
2022-11-26T05:41:22.166Z,84.67
2022-11-26T05:43:50.539Z,85.00
2022-11-26T05:46:20.272Z,98.25
2022-11-26T05:48:48.753Z,95.25
2022-11-26T05:51:17.577Z,88.25
2022-11-26T05:53:47.314Z,93.00
2022-11-26T05:56:16.037Z,92.75
2022-11-26T05:58:44.714Z,90.00
2022-11-26T06:01:13.801Z,91.75
2022-11-26T06:03:42.301Z,87.50
2022-11-26T06:06:11.229Z,95.00
2022-11-26T06:08:39.631Z,87.00
2022-11-26T06:11:12.715Z,95.25
2022-11-26T06:13:41.564Z,88.50
2022-11-26T06:16:10.622Z,92.25
2022-11-26T06:18:39.535Z,90.75
2022-11-26T06:21:09.090Z,95.50
2022-11-26T06:23:37.552Z,96.00
2022-11-26T06:26:10.674Z,91.00
2022-11-26T06:28:39.876Z,92.00
2022-11-26T06:31:10.297Z,89.00
2022-11-26T06:33:39.102Z,96.25
2022-11-26T06:36:08.054Z,93.75
2022-11-26T06:38:36.456Z,100.25
2022-11-26T06:41:07.237Z,103.25
2022-11-26T06:43:37.323Z,102.25
2022-11-26T06:46:08.619Z,94.75
2022-11-26T06:48:38.449Z,96.25
2022-11-26T06:51:09.362Z,97.50
2022-11-26T06:53:38.023Z,103.75
2022-11-26T06:56:09.307Z,100.25
2022-11-26T06:58:41.158Z,98.50
2022-11-26T07:01:10.486Z,100.75
2022-11-26T07:03:39.536Z,100.00
2022-11-26T07:06:17.355Z,96.00
2022-11-26T07:08:45.904Z,99.25
2022-11-26T07:11:15.397Z,100.00
2022-11-26T07:13:45.405Z,106.00
2022-11-26T07:16:14.615Z,102.75
2022-11-26T07:18:43.415Z,96.50
2022-11-26T07:21:14.247Z,97.25
2022-11-26T07:23:42.865Z,101.75
2022-11-26T07:26:13.567Z,88.50
2022-11-26T07:28:42.955Z,93.75
2022-11-26T07:31:17.000Z,105.50
2022-11-26T07:33:46.290Z,127.50
2022-11-26T07:36:17.179Z,110.50
2022-11-26T07:38:46.403Z,123.00
2022-11-26T07:41:18.239Z,116.75
2022-11-26T07:43:47.621Z,129.50
2022-11-26T07:46:21.527Z,134.00
2022-11-26T07:48:50.507Z,127.00
2022-11-26T07:51:21.199Z,126.75
2022-11-26T07:53:50.094Z,137.25
2022-11-26T07:56:19.667Z,136.00
2022-11-26T07:58:48.520Z,135.25
2022-11-26T08:01:20.850Z,130.50
2022-11-26T08:03:50.952Z,129.50
2022-11-26T08:06:21.778Z,154.75
2022-11-26T08:08:51.492Z,164.25
2022-11-26T08:11:22.725Z,154.75
2022-11-26T08:13:54.682Z,128.75
2022-11-26T08:16:26.878Z,125.50
2022-11-26T08:18:58.122Z,130.75
2022-11-26T08:21:27.493Z,137.25
2022-11-26T08:23:56.774Z,149.25
2022-11-26T08:26:35.035Z,112.00
2022-11-26T08:29:05.239Z,112.50
2022-11-26T08:31:38.875Z,112.25
2022-11-26T08:34:12.459Z,109.50
2022-11-26T08:36:41.209Z,121.50
2022-11-26T08:39:10.345Z,118.50
2022-11-26T08:41:39.164Z,111.00
2022-11-26T08:44:08.463Z,115.75
2022-11-26T08:46:40.059Z,106.25
2022-11-26T08:49:12.126Z,116.25
2022-11-26T08:51:41.015Z,110.50
2022-11-26T08:54:09.652Z,95.25
2022-11-26T08:56:38.602Z,105.50
2022-11-26T08:59:07.356Z,103.25
2022-11-26T09:01:38.068Z,115.25
2022-11-26T09:04:07.027Z,116.25
2022-11-26T09:06:37.768Z,117.75
2022-11-26T09:09:18.078Z,117.00
2022-11-26T09:11:50.361Z,128.75
2022-11-26T09:14:21.043Z,119.75
2022-11-26T09:16:51.310Z,136.50
2022-11-26T09:19:20.014Z,128.50
2022-11-26T09:21:49.646Z,129.00
2022-11-26T09:24:18.818Z,125.75
2022-11-26T09:26:48.468Z,121.75
2022-11-26T09:29:20.061Z,120.00
2022-11-26T09:32:21.376Z,125.50
2022-11-26T09:34:40.290Z,113.75
2022-11-26T09:37:09.430Z,114.50
2022-11-26T09:39:38.103Z,128.00
2022-11-26T09:42:08.882Z,117.75
2022-11-26T09:44:52.650Z,117.00
2022-11-26T09:47:24.952Z,128.00
2022-11-26T09:50:04.355Z,124.00
2022-11-26T09:52:38.198Z,118.00
2022-11-26T09:55:17.099Z,107.25
2022-11-26T09:57:52.720Z,108.25
2022-11-26T10:00:26.903Z,82.00
2022-11-26T10:02:58.431Z,86.75
2022-11-26T10:05:42.271Z,89.75
2022-11-26T10:08:25.919Z,88.00
2022-11-26T10:11:03.760Z,86.00
2022-11-26T10:13:46.137Z,78.50
2022-11-26T10:16:26.371Z,80.00
2022-11-26T10:19:03.969Z,88.75
2022-11-26T10:21:58.072Z,95.50
2022-11-26T10:24:31.220Z,89.50
2022-11-26T10:27:05.536Z,94.00
2022-11-26T10:29:39.187Z,86.50
2022-11-26T10:32:15.985Z,84.00
2022-11-26T10:34:51.502Z,85.00
2022-11-26T10:37:21.621Z,82.00
2022-11-26T10:39:55.262Z,4.00
2022-11-26T10:42:27.250Z,63.75
2022-11-26T10:44:55.762Z,77.00
2022-11-26T10:47:27.933Z,77.67
2022-11-26T10:50:45.569Z,55.00
2022-11-26T10:53:07.380Z,65.50
2022-11-26T10:55:40.605Z,68.75
2022-11-26T10:58:17.639Z,68.50
2022-11-26T11:00:54.958Z,55.25
2022-11-26T11:03:44.943Z,59.00
2022-11-26T11:06:29.067Z,57.75
2022-11-26T11:08:57.796Z,65.25
2022-11-26T11:11:27.760Z,61.25
2022-11-26T11:13:57.059Z,58.50
2022-11-26T11:16:29.651Z,61.25
2022-11-26T11:19:00.846Z,69.00
2022-11-26T11:21:36.398Z,70.00
2022-11-26T11:24:11.027Z,71.50
2022-11-26T11:26:43.403Z,65.75
2022-11-26T11:29:33.655Z,71.00
2022-11-26T11:32:04.505Z,64.25
2022-11-26T11:34:35.476Z,71.75
2022-11-26T11:37:14.767Z,72.00
2022-11-26T11:39:44.876Z,67.50
2022-11-26T11:42:23.782Z,72.25
2022-11-26T11:44:53.266Z,71.25
2022-11-26T11:47:31.329Z,65.50
2022-11-26T11:50:14.846Z,72.50
2022-11-26T11:52:56.875Z,74.00
2022-11-26T11:55:38.023Z,75.50
2022-11-26T11:58:20.946Z,74.00
2022-11-26T12:00:57.166Z,72.50
2022-11-26T12:04:08.386Z,71.75
2022-11-26T12:06:49.008Z,72.00
2022-11-26T12:09:26.627Z,71.00
2022-11-26T12:12:00.270Z,73.00
2022-11-26T12:14:35.986Z,50.50
2022-11-26T12:17:09.006Z,75.75
2022-11-26T12:19:44.349Z,73.25
2022-11-26T12:22:21.748Z,82.67
2022-11-26T12:24:57.515Z,81.33
2022-11-26T12:27:34.010Z,82.33
2022-11-26T12:30:08.748Z,83.67
2022-11-26T12:32:44.452Z,75.33
2022-11-26T12:35:17.859Z,86.33
2022-11-26T12:37:52.595Z,79.33
2022-11-26T12:40:32.245Z,75.00
2022-11-26T12:43:07.035Z,77.25
2022-11-26T12:45:45.835Z,76.25
2022-11-26T12:48:29.451Z,82.67
2022-11-26T12:51:02.817Z,86.75
2022-11-26T12:53:38.340Z,84.50
2022-11-26T12:56:17.950Z,85.50
2022-11-26T12:58:56.402Z,84.33
2022-11-26T13:01:25.264Z,90.00
2022-11-26T13:04:14.415Z,83.33
2022-11-26T13:07:01.028Z,87.00
2022-11-26T13:09:47.791Z,89.00
2022-11-26T13:12:28.396Z,91.00
2022-11-26T13:15:07.608Z,90.50
2022-11-26T13:17:42.952Z,86.75
2022-11-26T13:20:37.529Z,91.75
2022-11-26T13:23:20.457Z,93.25
2022-11-26T13:26:16.303Z,89.25
2022-11-26T13:29:18.024Z,86.50
2022-11-26T13:32:03.783Z,88.67
2022-11-26T13:34:53.778Z,87.50
2022-11-26T13:37:41.780Z,79.00
2022-11-26T13:40:38.746Z,82.00
2022-11-26T13:43:27.962Z,78.75
2022-11-26T13:46:17.555Z,84.00
2022-11-26T13:48:58.750Z,81.00
2022-11-26T13:51:34.911Z,83.33
2022-11-26T13:54:10.372Z,59.00
2022-11-26T13:56:40.815Z,86.00
2022-11-26T13:59:17.503Z,85.00
2022-11-26T14:01:47.380Z,86.50
2022-11-26T14:04:59.241Z,85.67
2022-11-26T14:07:29.438Z,84.33
2022-11-26T14:10:00.281Z,87.50
2022-11-26T14:13:02.263Z,84.33
2022-11-26T14:15:57.178Z,84.33
2022-11-26T14:19:00.791Z,85.67
2022-11-26T14:21:31.707Z,86.00
2022-11-26T14:24:01.903Z,90.33
2022-11-26T14:26:34.496Z,86.33
2022-11-26T14:29:13.312Z,82.33
2022-11-26T14:31:49.907Z,84.67
2022-11-26T14:34:24.359Z,83.67
2022-11-26T14:36:57.502Z,89.33
2022-11-26T14:39:27.592Z,92.00
2022-11-26T14:42:05.173Z,85.67
2022-11-26T14:44:35.046Z,85.67
2022-11-26T14:47:12.236Z,86.33
2022-11-26T14:49:43.860Z,83.00
2022-11-26T14:52:20.641Z,80.33
2022-11-26T14:54:51.735Z,78.00
2022-11-26T14:57:24.097Z,71.25
2022-11-26T15:00:00.016Z,69.25
2022-11-26T15:02:30.512Z,75.25
2022-11-26T15:05:01.208Z,66.75
2022-11-26T15:07:32.640Z,65.25
2022-11-26T15:10:03.113Z,58.25
2022-11-26T15:12:32.773Z,58.00
2022-11-26T15:15:02.893Z,50.25
2022-11-26T15:17:32.833Z,61.75
2022-11-26T15:20:05.417Z,50.00
2022-11-26T15:22:39.366Z,54.50
2022-11-26T15:25:17.767Z,46.75
2022-11-26T15:27:55.205Z,55.75
2022-11-26T15:30:26.078Z,57.25
2022-11-26T15:32:58.811Z,50.50
2022-11-26T15:35:28.329Z,59.75
2022-11-26T15:37:59.030Z,63.75
2022-11-26T15:40:31.616Z,61.50
2022-11-26T15:43:04.723Z,64.50
2022-11-26T15:45:40.327Z,66.50
2022-11-26T15:48:27.662Z,71.00
2022-11-26T15:51:02.104Z,71.25
2022-11-26T15:53:35.908Z,80.50
2022-11-26T15:56:06.069Z,65.50
2022-11-26T15:58:39.487Z,74.25
2022-11-26T16:01:17.575Z,71.00
2022-11-26T16:03:48.689Z,75.25
2022-11-26T16:06:29.977Z,107.25
2022-11-26T16:09:27.876Z,115.50
2022-11-26T16:12:01.357Z,58.25
2022-11-26T16:14:33.271Z,60.50
2022-11-26T16:17:08.347Z,61.75
2022-11-26T16:19:38.431Z,67.00
2022-11-26T16:22:07.880Z,58.00
2022-11-26T16:24:40.988Z,60.50
2022-11-26T16:27:28.667Z,67.25
2022-11-26T16:29:57.566Z,63.00
2022-11-26T16:32:25.996Z,66.00
2022-11-26T16:34:54.697Z,65.00
2022-11-26T16:37:25.297Z,72.25
2022-11-26T16:40:02.363Z,64.25
2022-11-26T16:42:32.024Z,58.00
2022-11-26T16:45:04.148Z,57.50
2022-11-26T16:47:35.716Z,64.25
2022-11-26T16:50:05.208Z,55.00
2022-11-26T16:52:38.532Z,72.75
2022-11-26T16:55:12.608Z,71.75
2022-11-26T16:57:42.227Z,64.25
2022-11-26T17:00:17.657Z,60.25
2022-11-26T17:02:46.407Z,65.25
2022-11-26T17:05:15.394Z,64.25
2022-11-26T17:07:47.718Z,66.75
2022-11-26T17:10:19.455Z,73.75
2022-11-26T17:12:49.752Z,60.00
2022-11-26T17:15:19.144Z,56.00
2022-11-26T17:17:47.740Z,70.25
2022-11-26T17:20:18.583Z,68.75
2022-11-26T17:22:47.063Z,66.75
2022-11-26T17:25:17.542Z,75.50
2022-11-26T17:27:46.465Z,75.25
2022-11-26T17:30:17.760Z,75.00
2022-11-26T17:32:46.297Z,65.75
2022-11-26T17:35:15.079Z,74.50
2022-11-26T17:37:44.341Z,78.75
2022-11-26T17:40:20.236Z,78.75
2022-11-26T17:42:48.890Z,75.75
2022-11-26T17:45:18.512Z,72.00
2022-11-26T17:47:47.287Z,75.25
2022-11-26T17:50:20.461Z,75.00
2022-11-26T17:52:49.951Z,81.75
2022-11-26T17:55:21.102Z,79.00
2022-11-26T17:57:49.947Z,90.67
2022-11-26T18:00:21.087Z,84.67
2022-11-26T18:02:49.631Z,83.67
2022-11-26T18:05:18.769Z,88.00
2022-11-26T18:07:47.248Z,90.67
2022-11-26T18:10:18.381Z,95.50
2022-11-26T18:12:48.843Z,99.50
2022-11-26T18:15:19.293Z,97.50
2022-11-26T18:17:50.778Z,96.50
2022-11-26T18:20:21.535Z,97.75
2022-11-26T18:22:52.253Z,96.00
2022-11-26T18:25:21.618Z,99.75
2022-11-26T18:27:51.402Z,98.25
2022-11-26T18:30:20.856Z,96.50
2022-11-26T18:32:49.418Z,93.25
2022-11-26T18:35:18.949Z,91.00
2022-11-26T18:37:47.756Z,99.00
2022-11-26T18:40:18.064Z,93.25
2022-11-26T18:42:46.852Z,93.25
2022-11-26T18:45:17.039Z,91.25
2022-11-26T18:47:45.622Z,89.50
2022-11-26T18:50:14.802Z,92.75
2022-11-26T18:52:43.197Z,90.25
2022-11-26T18:55:14.683Z,93.00
2022-11-26T18:57:43.193Z,96.25
2022-11-26T19:00:12.980Z,107.00
2022-11-26T19:02:42.859Z,101.75
2022-11-26T19:05:12.158Z,110.50
2022-11-26T19:07:40.603Z,116.25
2022-11-26T19:10:10.528Z,104.75
2022-11-26T19:12:38.999Z,109.50
2022-11-26T19:15:08.419Z,98.25
2022-11-26T19:17:36.834Z,103.75
2022-11-26T19:20:08.589Z,103.50
2022-11-26T19:22:37.953Z,97.25
2022-11-26T19:25:07.388Z,101.00
2022-11-26T19:27:36.172Z,99.50
2022-11-26T19:30:05.758Z,98.50
2022-11-26T19:32:34.115Z,84.25
2022-11-26T19:35:06.084Z,93.00
2022-11-26T19:37:36.464Z,93.00
2022-11-26T19:40:06.099Z,88.75
2022-11-26T19:42:34.457Z,94.50
2022-11-26T19:45:03.197Z,101.25
2022-11-26T19:47:31.536Z,96.25
2022-11-26T19:50:00.312Z,99.50
2022-11-26T19:52:28.737Z,94.75
2022-11-26T19:54:58.839Z,95.50
2022-11-26T19:57:27.287Z,92.50
2022-11-26T19:59:55.977Z,94.75
2022-11-26T20:02:24.401Z,104.50
2022-11-26T20:04:53.232Z,104.75
2022-11-26T20:07:21.817Z,115.50
2022-11-26T20:09:52.335Z,116.50
2022-11-26T20:12:22.343Z,110.00
2022-11-26T20:14:52.236Z,114.25
2022-11-26T20:17:20.788Z,103.25
2022-11-26T20:19:49.566Z,104.50
2022-11-26T20:22:18.306Z,98.00
2022-11-26T20:24:47.089Z,100.75
2022-11-26T20:27:15.590Z,93.50
2022-11-26T20:29:45.664Z,97.00
2022-11-26T20:32:14.410Z,92.75
2022-11-26T20:34:44.730Z,97.00
2022-11-26T20:37:13.198Z,98.50
2022-11-26T20:39:42.314Z,95.25
2022-11-26T20:42:11.855Z,97.75
2022-11-26T20:44:40.541Z,94.50
2022-11-26T20:47:10.289Z,96.25
2022-11-26T20:49:42.874Z,110.25
2022-11-26T20:52:11.607Z,103.00
2022-11-26T20:54:41.174Z,93.25
2022-11-26T20:57:09.571Z,104.50
2022-11-26T20:59:38.541Z,108.75
2022-11-26T21:02:07.133Z,98.75
2022-11-26T21:04:37.380Z,109.00
2022-11-26T21:07:05.963Z,103.50
2022-11-26T21:09:34.761Z,108.75
2022-11-26T21:12:03.230Z,111.00
2022-11-26T21:14:32.009Z,110.25
2022-11-26T21:17:00.397Z,111.50
2022-11-26T21:19:29.303Z,102.25
2022-11-26T21:21:59.054Z,93.25
2022-11-26T21:24:27.872Z,95.50
2022-11-26T21:26:56.351Z,107.75
2022-11-26T21:29:25.075Z,101.25
2022-11-26T21:31:53.831Z,99.00
2022-11-26T21:34:22.730Z,98.50
2022-11-26T21:36:52.029Z,109.25
2022-11-26T21:39:22.306Z,102.50
2022-11-26T21:41:52.912Z,109.50
2022-11-26T21:44:21.654Z,107.75
2022-11-26T21:46:50.177Z,112.25
2022-11-26T21:49:18.916Z,109.75
2022-11-26T21:51:47.424Z,101.75
2022-11-26T21:54:16.460Z,101.75
2022-11-26T21:56:46.194Z,101.25
2022-11-26T21:59:14.907Z,99.75
2022-11-26T22:01:44.212Z,86.50
2022-11-26T22:04:15.717Z,91.75
2022-11-26T22:06:44.990Z,92.25
2022-11-26T22:09:15.054Z,95.50
2022-11-26T22:11:46.530Z,96.25
2022-11-26T22:14:16.876Z,75.00
2022-11-26T22:16:47.375Z,95.00
2022-11-26T22:19:16.181Z,95.50
2022-11-26T22:21:44.812Z,86.33
2022-11-26T22:24:16.478Z,88.50
2022-11-26T22:26:47.023Z,94.00
2022-11-26T22:29:18.203Z,92.75
2022-11-26T22:31:48.352Z,98.50
2022-11-26T22:34:21.909Z,78.67
2022-11-26T22:36:50.765Z,86.00
2022-11-26T22:39:20.672Z,97.75
2022-11-26T22:41:50.567Z,92.75
2022-11-26T22:44:19.718Z,95.25
2022-11-26T22:46:48.360Z,97.00
2022-11-26T22:49:18.921Z,97.33
2022-11-26T22:51:48.097Z,95.25
2022-11-26T22:54:18.149Z,90.00
2022-11-26T22:56:46.626Z,82.67
2022-11-26T22:59:16.926Z,91.67
2022-11-26T23:01:45.308Z,93.00
2022-11-26T23:04:13.988Z,89.00
2022-11-26T23:06:42.419Z,97.00
2022-11-26T23:09:13.341Z,93.33
2022-11-26T23:11:43.774Z,96.33
2022-11-26T23:14:13.258Z,91.67
2022-11-26T23:16:44.310Z,86.33
2022-11-26T23:19:15.418Z,93.67
2022-11-26T23:21:44.873Z,93.67
2022-11-26T23:24:14.914Z,86.00
2022-11-26T23:26:44.302Z,91.67
2022-11-26T23:29:13.628Z,89.67
2022-11-26T23:31:45.601Z,94.00
2022-11-26T23:34:15.605Z,92.33
2022-11-26T23:36:43.933Z,94.67
2022-11-26T23:39:14.448Z,94.75
2022-11-26T23:41:43.765Z,92.67
2022-11-26T23:44:12.451Z,96.75
2022-11-26T23:46:40.828Z,93.00
2022-11-26T23:49:11.682Z,85.33
2022-11-26T23:51:40.178Z,90.00
2022-11-26T23:54:08.950Z,94.00
2022-11-26T23:56:37.283Z,86.00
2022-11-26T23:59:06.296Z,88.00
